F/V Matmaco — FVNS — position and weather

sailwx.info

Track history (hours):
 
Tides and Currents Weather Stations Pressure Air Temp Water Temp Dewpoint Dewpoint Depression Visibility Wind Speed Wind Dir Waves Ship Positions

F/V Matmaco

Last reported at 2016-Jun-28 01:19 UTC. Time now 2016-Jun-29 16:33 UTC.
Position N 46°54' W 002°49'.

Length 20 m.

Type: Other ship. MMSI: 228194000.

Date/timePositionNaut miles runAvg speedWind from/ knotsBaromVisibWave heightAir tempDewpointWater temp
2016-Jun-28 01:19N 46°54' W 002°49'8 9.8
2016-Jun-28 00:33N 47°01' W 002°44'9 9.5
2016-Jun-27 23:33N 47°10' W 002°39'10 9.5
2016-Jun-27 22:33N 47°19' W 002°34'2 2.2
2016-Jun-27 21:34N 47°18' W 002°31'2 2.5
2016-Jun-27 20:33N 47°18' W 002°34'9 9.1
2016-Jun-27 19:34N 47°09' W 002°39'9 9.0
2016-Jun-27 18:34N 47°00' W 002°43'8 0.2
2016-Jun-26 01:27N 46°55' W 002°52'9 9.6
2016-Jun-26 00:33N 47°03' W 002°47'1010.0
2016-Jun-25 23:33N 47°12' W 002°40'9 8.9
2016-Jun-25 22:32N 47°19' W 002°32'1 0.1
2016-Jun-24 23:24N 47°18' W 002°31'0 0.0
2016-Jun-24 22:32N 47°18' W 002°31'0 0.0
2016-Jun-24 21:32N 47°18' W 002°31'2 1.5
2016-Jun-24 20:33N 47°19' W 002°32'8 8.2
2016-Jun-24 19:32N 47°12' W 002°39'8 7.9
2016-Jun-24 18:33N 47°05' W 002°45'35 3.9
2016-Jun-24 09:24N 46°34' W 003°08'2 1.9
2016-Jun-24 08:08N 46°31' W 003°08'12 3.3
2016-Jun-24 04:29N 46°43' W 003°04'3 3.2
2016-Jun-24 03:31N 46°45' W 003°06'3 2.2
2016-Jun-24 02:16N 46°44' W 003°03'3 3.1
2016-Jun-24 01:20N 46°43' W 002°59'2 3.1
2016-Jun-24 00:33N 46°41' W 003°01'5 3.4
2016-Jun-23 23:12N 46°44' W 003°06'5 0.6
2016-Jun-23 14:15N 46°42' W 003°13'2 3.3
2016-Jun-23 13:34N 46°40' W 003°15'3 2.9
2016-Jun-23 12:33N 46°38' W 003°12'22 3.1
2016-Jun-23 05:33N 46°56' W 002°53'9 9.4
2016-Jun-23 04:33N 47°04' W 002°46'9 9.3
2016-Jun-23 03:33N 47°12' W 002°39'8 8.3
2016-Jun-23 02:33N 47°19' W 002°32'  
2016-Jun-20 08:34N 47°18' W 002°31'0 0.0
2016-Jun-20 07:34N 47°18' W 002°31'0 0.0
2016-Jun-20 06:33N 47°18' W 002°31'  
Track history (hours):
 
Tides and Currents Weather Stations Pressure Air Temp Water Temp Dewpoint Dewpoint Depression Visibility Wind Speed Wind Dir Waves Ship Positions

F/V Matmaco

Last reported at 2016-Jun-28 01:19 UTC. Time now 2016-Jun-29 16:33 UTC.
Position N 46°54' W 002°49'.

Length 20 m.

Type: Other ship. MMSI: 228194000.

Date/timePositionNaut miles runAvg speedWind from/ knotsBaromVisibWave heightAir tempDewpointWater temp
2016-Jun-28 01:19N 46°54' W 002°49'8 9.8
2016-Jun-28 00:33N 47°01' W 002°44'9 9.5
2016-Jun-27 23:33N 47°10' W 002°39'10 9.5
2016-Jun-27 22:33N 47°19' W 002°34'2 2.2
2016-Jun-27 21:34N 47°18' W 002°31'2 2.5
2016-Jun-27 20:33N 47°18' W 002°34'9 9.1
2016-Jun-27 19:34N 47°09' W 002°39'9 9.0
2016-Jun-27 18:34N 47°00' W 002°43'8 0.2
2016-Jun-26 01:27N 46°55' W 002°52'9 9.6
2016-Jun-26 00:33N 47°03' W 002°47'1010.0
2016-Jun-25 23:33N 47°12' W 002°40'9 8.9
2016-Jun-25 22:32N 47°19' W 002°32'1 0.1
2016-Jun-24 23:24N 47°18' W 002°31'0 0.0
2016-Jun-24 22:32N 47°18' W 002°31'0 0.0
2016-Jun-24 21:32N 47°18' W 002°31'2 1.5
2016-Jun-24 20:33N 47°19' W 002°32'8 8.2
2016-Jun-24 19:32N 47°12' W 002°39'8 7.9
2016-Jun-24 18:33N 47°05' W 002°45'35 3.9
2016-Jun-24 09:24N 46°34' W 003°08'2 1.9
2016-Jun-24 08:08N 46°31' W 003°08'12 3.3
2016-Jun-24 04:29N 46°43' W 003°04'3 3.2
2016-Jun-24 03:31N 46°45' W 003°06'3 2.2
2016-Jun-24 02:16N 46°44' W 003°03'3 3.1
2016-Jun-24 01:20N 46°43' W 002°59'2 3.1
2016-Jun-24 00:33N 46°41' W 003°01'5 3.4
2016-Jun-23 23:12N 46°44' W 003°06'5 0.6
2016-Jun-23 14:15N 46°42' W 003°13'2 3.3
2016-Jun-23 13:34N 46°40' W 003°15'3 2.9
2016-Jun-23 12:33N 46°38' W 003°12'22 3.1
2016-Jun-23 05:33N 46°56' W 002°53'9 9.4
2016-Jun-23 04:33N 47°04' W 002°46'9 9.3
2016-Jun-23 03:33N 47°12' W 002°39'8 8.3
2016-Jun-23 02:33N 47°19' W 002°32'  
2016-Jun-20 08:34N 47°18' W 002°31'0 0.0
2016-Jun-20 07:34N 47°18' W 002°31'0 0.0
2016-Jun-20 06:33N 47°18' W 002°31'  

Dump ship's entire track history